Time;durP1;ratioP1;P1;durP2;ratioP2;P2;SDS_P1;SDS_P2;PMS_P1;PMS_P2;Temp;Humidity;BMP_temperature;BMP_pressure;BME280_temperature;BME280_humidity;BME280_pressure;Samples;Min_cycle;Max_cycle;Signal;HPM_P1;HPM_P2
2021/09/24 00:01:24;;;;;;;1.30;1.20;;;14.10;99.90;;;;;;6199994;23;20426;-85
2021/09/24 00:04:11;;;;;;;1.33;1.20;;;14.10;99.90;;;;;;6183432;23;20377;-86
2021/09/24 00:06:56;;;;;;;1.65;1.30;;;14.00;99.90;;;;;;6202613;23;20370;-86
2021/09/24 00:09:40;;;;;;;2.80;1.60;;;14.10;99.90;;;;;;6181339;23;20414;-85
2021/09/24 00:12:25;;;;;;;3.20;1.45;;;13.90;99.90;;;;;;6200434;23;20370;-84
2021/09/24 00:15:12;;;;;;;1.60;1.50;;;13.90;99.90;;;;;;6175666;23;20467;-82
2021/09/24 00:17:56;;;;;;;2.60;1.73;;;13.80;99.90;;;;;;6197381;23;20401;-84
2021/09/24 00:20:40;;;;;;;2.53;1.63;;;13.80;99.90;;;;;;6137259;23;20378;-86
2021/09/24 00:23:25;;;;;;;1.60;1.33;;;13.80;99.90;;;;;;6200021;23;20403;-85
2021/09/24 00:26:09;;;;;;;1.50;1.35;;;13.80;99.90;;;;;;6204757;23;20383;-83
2021/09/24 00:28:53;;;;;;;4.95;1.80;;;13.70;99.90;;;;;;6183334;23;20367;-86
2021/09/24 00:31:37;;;;;;;3.20;1.90;;;13.70;99.90;;;;;;6199497;23;20394;-82
2021/09/24 00:34:23;;;;;;;2.42;1.58;;;13.80;99.90;;;;;;6197691;23;20413;-82
2021/09/24 00:37:07;;;;;;;3.80;1.77;;;13.70;99.90;;;;;;6196894;23;20875;-84
2021/09/24 00:39:51;;;;;;;8.25;1.90;;;13.70;99.90;;;;;;6195524;23;20359;-85
2021/09/24 00:42:36;;;;;;;3.60;1.60;;;13.70;99.90;;;;;;6175584;23;20413;-85
2021/09/24 00:45:20;;;;;;;2.42;1.63;;;13.60;99.90;;;;;;6192336;23;20421;-82
2021/09/24 00:48:04;;;;;;;5.93;2.13;;;13.60;99.90;;;;;;6193733;23;20363;-81
2021/09/24 00:50:49;;;;;;;3.53;2.08;;;13.50;99.90;;;;;;6172932;23;20468;-82
2021/09/24 00:53:33;;;;;;;4.80;1.90;;;13.40;99.90;;;;;;6180728;23;20391;-84
2021/09/24 00:56:17;;;;;;;5.13;1.92;;;13.50;99.90;;;;;;6175634;23;20358;-82
2021/09/24 00:59:02;;;;;;;3.80;1.70;;;13.40;99.90;;;;;;6196791;23;20358;-86
2021/09/24 01:01:46;;;;;;;6.70;1.63;;;13.30;99.90;;;;;;6195884;23;20705;-83
2021/09/24 01:04:31;;;;;;;5.20;1.63;;;13.30;99.90;;;;;;6194264;23;20418;-81
2021/09/24 01:07:15;;;;;;;4.57;1.92;;;13.20;99.90;;;;;;6193884;23;20463;-83
2021/09/24 01:09:59;;;;;;;2.70;1.80;;;13.30;99.90;;;;;;6172775;23;20375;-84
2021/09/24 01:12:44;;;;;;;4.28;2.20;;;13.20;99.90;;;;;;6170912;23;20359;-82
2021/09/24 01:15:28;;;;;;;3.13;1.75;;;13.10;99.90;;;;;;6192152;23;20366;-82
2021/09/24 01:18:12;;;;;;;4.00;2.03;;;13.10;99.90;;;;;;6169558;23;21097;-81
2021/09/24 01:20:57;;;;;;;2.90;1.98;;;13.00;99.90;;;;;;6210424;23;20459;-81
2021/09/24 01:23:41;;;;;;;3.92;1.88;;;13.10;99.90;;;;;;6188443;23;20868;-81
2021/09/24 01:26:26;;;;;;;3.50;1.90;;;12.90;99.90;;;;;;6189924;23;20431;-82
2021/09/24 01:29:11;;;;;;;4.60;2.13;;;12.90;99.90;;;;;;6165160;23;20438;-81
2021/09/24 01:31:55;;;;;;;3.40;2.08;;;12.90;99.90;;;;;;6164801;23;20454;-80
2021/09/24 01:34:40;;;;;;;4.00;1.98;;;12.80;99.90;;;;;;6187447;23;20430;-81
2021/09/24 01:37:24;;;;;;;3.25;2.03;;;12.80;99.90;;;;;;6188820;23;20374;-81
2021/09/24 01:40:15;;;;;;;3.90;2.30;;;12.80;99.90;;;;;;6166743;23;20437;-81
2021/09/24 01:42:59;;;;;;;3.35;2.10;;;12.80;99.90;;;;;;6194536;23;20374;-85
2021/09/24 01:45:43;;;;;;;4.13;1.83;;;12.80;99.90;;;;;;6154305;23;20702;-86
2021/09/24 01:48:28;;;;;;;3.23;1.93;;;12.70;99.90;;;;;;6190584;23;20363;-84
2021/09/24 01:51:12;;;;;;;3.20;2.00;;;12.70;99.90;;;;;;6167894;23;20920;-82
2021/09/24 01:53:56;;;;;;;3.58;2.00;;;12.70;99.90;;;;;;6187629;23;20390;-83
2021/09/24 01:56:40;;;;;;;3.25;1.90;;;12.60;99.90;;;;;;6186926;23;20418;-81
2021/09/24 01:59:25;;;;;;;2.90;1.90;;;12.60;99.90;;;;;;6166334;23;20363;-81
2021/09/24 02:02:09;;;;;;;2.13;1.73;;;12.50;99.90;;;;;;6187085;23;20434;-80
2021/09/24 02:04:53;;;;;;;2.20;1.75;;;12.50;99.90;;;;;;6209169;23;20435;-81
2021/09/24 02:07:38;;;;;;;5.18;2.20;;;12.50;99.90;;;;;;6187800;23;20422;-81
2021/09/24 02:10:22;;;;;;;4.45;2.17;;;12.40;99.90;;;;;;6186828;23;20395;-81
2021/09/24 02:13:06;;;;;;;4.75;2.13;;;12.40;99.90;;;;;;6187262;23;20363;-81
2021/09/24 02:15:50;;;;;;;3.58;2.10;;;12.40;99.90;;;;;;6166876;23;20371;-81
2021/09/24 02:18:35;;;;;;;5.43;2.20;;;12.40;99.90;;;;;;6166213;23;20382;-81
2021/09/24 02:21:19;;;;;;;2.70;1.80;;;12.50;99.90;;;;;;6187447;23;20414;-80
2021/09/24 02:24:04;;;;;;;2.67;1.95;;;12.40;99.90;;;;;;6185782;23;20363;-83
2021/09/24 02:26:48;;;;;;;2.95;2.13;;;12.40;99.90;;;;;;6187221;23;20371;-84
2021/09/24 02:29:32;;;;;;;2.55;1.80;;;12.40;99.90;;;;;;6187621;23;20701;-84
2021/09/24 02:32:16;;;;;;;2.88;1.83;;;12.40;99.90;;;;;;6188326;23;20890;-86
2021/09/24 02:35:01;;;;;;;3.60;1.85;;;12.50;99.90;;;;;;6187700;23;20781;-82
2021/09/24 02:37:45;;;;;;;3.58;2.28;;;12.50;99.90;;;;;;6186669;23;20394;-81
2021/09/24 02:40:29;;;;;;;4.72;2.03;;;12.50;99.90;;;;;;6166154;23;20386;-82
2021/09/24 02:43:14;;;;;;;5.30;2.47;;;12.50;99.90;;;;;;6166728;23;20394;-81
2021/09/24 02:45:58;;;;;;;3.15;1.80;;;12.50;99.90;;;;;;6166220;23;20451;-81
2021/09/24 02:48:42;;;;;;;2.95;1.67;;;12.50;99.90;;;;;;6186204;23;20371;-82
2021/09/24 02:51:26;;;;;;;4.55;2.63;;;12.50;99.90;;;;;;6165356;23;20387;-82
2021/09/24 02:54:10;;;;;;;3.78;2.28;;;12.50;99.90;;;;;;6187079;23;20374;-80
2021/09/24 02:56:55;;;;;;;3.55;2.22;;;12.60;99.90;;;;;;6187192;23;20414;-81
2021/09/24 02:59:39;;;;;;;5.15;2.13;;;12.60;99.90;;;;;;6186634;23;20422;-80
2021/09/24 03:02:23;;;;;;;4.55;2.70;;;12.60;99.90;;;;;;6173696;23;20429;-81
2021/09/24 03:05:08;;;;;;;4.20;2.47;;;12.60;99.90;;;;;;6188011;23;20371;-81
2021/09/24 03:07:52;;;;;;;4.03;2.23;;;12.60;99.90;;;;;;6188274;23;20843;-81
2021/09/24 03:10:36;;;;;;;3.97;2.30;;;12.50;99.90;;;;;;6166321;23;20402;-84
2021/09/24 03:13:21;;;;;;;2.80;2.20;;;12.50;99.90;;;;;;6185866;23;20912;-81
2021/09/24 03:16:05;;;;;;;5.13;2.35;;;12.50;99.90;;;;;;6187210;23;20410;-81
2021/09/24 03:18:50;;;;;;;6.97;2.53;;;12.50;99.90;;;;;;6186541;23;20388;-82
2021/09/24 03:21:35;;;;;;;1.90;1.67;;;12.60;99.90;;;;;;6186720;23;20447;-82
2021/09/24 03:24:19;;;;;;;2.88;1.90;;;12.60;99.90;;;;;;6185766;23;20829;-81
2021/09/24 03:27:03;;;;;;;3.80;2.10;;;12.60;99.90;;;;;;6183381;23;20390;-84
2021/09/24 03:29:51;;;;;;;2.70;1.80;;;12.60;99.90;;;;;;6185418;23;20367;-81
2021/09/24 03:32:35;;;;;;;5.95;2.33;;;12.60;99.90;;;;;;6165579;23;20466;-81
2021/09/24 03:35:19;;;;;;;6.35;2.45;;;12.60;99.90;;;;;;6186314;23;20379;-81
2021/09/24 03:38:03;;;;;;;6.35;2.20;;;12.60;99.90;;;;;;6184916;23;20378;-81
2021/09/24 03:40:47;;;;;;;2.58;2.00;;;12.70;99.90;;;;;;6185664;23;20429;-81
2021/09/24 03:43:31;;;;;;;4.00;2.20;;;12.70;99.90;;;;;;6185587;23;20355;-80
2021/09/24 03:46:16;;;;;;;6.95;2.58;;;12.70;99.90;;;;;;6186703;23;20413;-80
2021/09/24 03:49:00;;;;;;;4.25;2.10;;;12.70;99.90;;;;;;6186010;23;20366;-82
2021/09/24 03:51:44;;;;;;;5.07;2.30;;;12.60;99.90;;;;;;6165359;23;20382;-82
2021/09/24 03:54:29;;;;;;;4.70;2.03;;;12.70;99.90;;;;;;6185482;23;20429;-81
2021/09/24 03:57:13;;;;;;;4.28;2.42;;;12.70;99.90;;;;;;6186446;23;20430;-80
2021/09/24 03:59:57;;;;;;;5.17;2.30;;;12.70;99.90;;;;;;6184897;23;20441;-83
2021/09/24 04:02:42;;;;;;;6.25;2.65;;;12.60;99.90;;;;;;6185762;23;20435;-81
2021/09/24 04:05:26;;;;;;;5.15;2.60;;;12.60;99.90;;;;;;6174773;23;20374;-81
2021/09/24 04:08:13;;;;;;;2.47;2.00;;;12.70;99.90;;;;;;6190841;23;20371;-82
2021/09/24 04:10:57;;;;;;;4.53;2.20;;;12.70;99.90;;;;;;6185511;23;20739;-83
2021/09/24 04:13:41;;;;;;;4.65;2.33;;;12.70;99.90;;;;;;6184498;23;20870;-80
2021/09/24 04:16:29;;;;;;;4.07;2.03;;;12.70;99.90;;;;;;6189245;23;20978;-81
2021/09/24 04:19:14;;;;;;;5.95;2.55;;;12.70;99.90;;;;;;6202239;23;20418;-84
2021/09/24 04:21:58;;;;;;;6.05;2.42;;;12.70;99.90;;;;;;6196528;23;20455;-85
2021/09/24 04:24:42;;;;;;;3.17;2.08;;;12.70;99.90;;;;;;6194144;23;20375;-81
2021/09/24 04:27:26;;;;;;;3.53;2.05;;;12.70;99.90;;;;;;6191351;23;20371;-80
2021/09/24 04:30:11;;;;;;;4.10;2.28;;;12.70;99.90;;;;;;6170435;23;20847;-82
2021/09/24 04:32:55;;;;;;;4.82;2.50;;;12.70;99.90;;;;;;6189615;23;20418;-81
2021/09/24 04:35:39;;;;;;;3.80;2.33;;;12.70;99.90;;;;;;6189533;23;20852;-83
2021/09/24 04:38:25;;;;;;;6.13;2.58;;;12.70;99.90;;;;;;6167198;23;20437;-81
2021/09/24 04:41:10;;;;;;;6.90;2.60;;;12.70;99.90;;;;;;6188717;23;20406;-81
2021/09/24 04:43:54;;;;;;;2.67;1.70;;;12.60;99.90;;;;;;6188794;23;20370;-81
2021/09/24 04:46:38;;;;;;;3.63;1.93;;;12.60;99.90;;;;;;6189636;23;20693;-81
2021/09/24 04:49:23;;;;;;;3.55;2.08;;;12.60;99.90;;;;;;6166931;23;20947;-80
2021/09/24 04:52:07;;;;;;;4.05;2.05;;;12.60;99.90;;;;;;6187929;23;20366;-80
2021/09/24 04:54:53;;;;;;;4.78;2.42;;;12.60;99.90;;;;;;6188206;23;20785;-82
2021/09/24 04:57:37;;;;;;;3.67;2.05;;;12.60;99.90;;;;;;6188541;23;20486;-81
2021/09/24 05:00:21;;;;;;;5.90;2.60;;;12.60;99.90;;;;;;6189000;23;20362;-79
2021/09/24 05:03:05;;;;;;;4.05;2.25;;;12.60;99.90;;;;;;6166678;23;20414;-80
2021/09/24 05:05:50;;;;;;;7.68;2.35;;;12.70;99.90;;;;;;6167458;23;20742;-83
2021/09/24 05:08:34;;;;;;;4.35;2.30;;;12.60;99.90;;;;;;6166069;23;20871;-81
2021/09/24 05:11:18;;;;;;;2.37;1.77;;;12.60;99.90;;;;;;6167769;23;20371;-80
2021/09/24 05:14:04;;;;;;;4.00;2.25;;;12.60;99.90;;;;;;6187350;23;20927;-79
2021/09/24 05:16:48;;;;;;;6.22;2.53;;;12.60;99.90;;;;;;6189136;23;20493;-81
2021/09/24 05:19:32;;;;;;;7.97;2.90;;;12.60;99.90;;;;;;6167977;23;20386;-81
2021/09/24 05:22:17;;;;;;;3.25;2.13;;;12.60;99.90;;;;;;6167974;23;20884;-84
2021/09/24 05:25:01;;;;;;;6.03;2.67;;;12.50;99.90;;;;;;6168488;23;20765;-79
2021/09/24 05:27:45;;;;;;;3.80;2.30;;;12.50;99.90;;;;;;6188545;23;20455;-80
2021/09/24 05:30:30;;;;;;;2.60;1.92;;;12.60;99.90;;;;;;6189554;23;20370;-81
2021/09/24 05:33:14;;;;;;;5.63;2.30;;;12.60;99.90;;;;;;6189706;23;20370;-82
2021/09/24 05:35:58;;;;;;;5.07;2.30;;;12.60;99.90;;;;;;6190683;23;20367;-84
2021/09/24 05:38:43;;;;;;;4.80;2.22;;;12.60;99.90;;;;;;6197741;23;20367;-81
2021/09/24 05:41:28;;;;;;;8.43;2.67;;;12.60;99.90;;;;;;6173118;23;20383;-84
2021/09/24 05:44:12;;;;;;;4.90;2.07;;;12.60;99.90;;;;;;6169663;23;20418;-81
2021/09/24 05:46:56;;;;;;;6.85;2.70;;;12.60;99.90;;;;;;6191117;23;20371;-80
2021/09/24 05:49:41;;;;;;;2.50;2.28;;;12.70;99.90;;;;;;6189801;23;20426;-80
2021/09/24 05:52:25;;;;;;;4.65;2.03;;;12.70;99.90;;;;;;6175795;23;20437;-81
2021/09/24 05:55:10;;;;;;;4.03;2.33;;;12.70;99.90;;;;;;6188993;23;21038;-80
2021/09/24 05:57:55;;;;;;;4.15;2.03;;;12.70;99.90;;;;;;6188997;23;20455;-81
2021/09/24 06:00:39;;;;;;;2.75;1.92;;;12.80;99.90;;;;;;6167806;23;20402;-81
2021/09/24 06:03:24;;;;;;;6.30;2.45;;;12.80;99.90;;;;;;6186559;23;20374;-82
2021/09/24 06:06:08;;;;;;;5.47;2.50;;;12.80;99.90;;;;;;6167523;23;20374;-81
2021/09/24 06:08:52;;;;;;;4.38;2.17;;;12.70;99.90;;;;;;6168709;23;20990;-81
2021/09/24 06:11:37;;;;;;;6.30;2.40;;;12.80;99.90;;;;;;6167940;23;20453;-81
2021/09/24 06:14:21;;;;;;;3.72;2.38;;;12.80;99.90;;;;;;6189753;23;20422;-80
2021/09/24 06:17:07;;;;;;;4.45;2.10;;;12.80;99.90;;;;;;6188979;23;20366;-84
2021/09/24 06:19:52;;;;;;;3.42;2.10;;;12.80;99.90;;;;;;6189554;23;20366;-81
2021/09/24 06:22:36;;;;;;;4.00;2.07;;;12.80;99.90;;;;;;6188893;23;20914;-83
2021/09/24 06:25:20;;;;;;;4.73;2.33;;;12.80;99.90;;;;;;6167586;23;20374;-82
2021/09/24 06:28:04;;;;;;;7.63;2.63;;;12.70;99.90;;;;;;6189968;23;20379;-87
2021/09/24 06:30:48;;;;;;;6.72;2.28;;;12.80;99.90;;;;;;6167701;23;20358;-81
2021/09/24 06:33:33;;;;;;;3.58;2.35;;;12.70;99.90;;;;;;6189481;23;20701;-81
2021/09/24 06:36:19;;;;;;;3.22;2.00;;;12.70;99.90;;;;;;6190168;23;20375;-82
2021/09/24 06:39:03;;;;;;;6.40;2.85;;;12.70;99.90;;;;;;6189242;23;20386;-82
2021/09/24 06:41:48;;;;;;;6.25;2.80;;;12.70;99.90;;;;;;6188663;23;20394;-81
2021/09/24 06:44:33;;;;;;;6.20;2.15;;;12.80;99.90;;;;;;6189304;23;20410;-83
2021/09/24 06:47:18;;;;;;;4.22;2.70;;;12.80;99.90;;;;;;6167705;23;20370;-83
2021/09/24 06:50:03;;;;;;;5.57;2.45;;;12.80;99.90;;;;;;6189276;23;20370;-80
2021/09/24 06:52:47;;;;;;;3.07;2.07;;;12.90;99.90;;;;;;6191246;23;20375;-88
2021/09/24 06:55:31;;;;;;;4.85;2.20;;;12.90;99.90;;;;;;6222446;23;20371;-81
2021/09/24 06:58:15;;;;;;;3.83;2.00;;;13.00;99.90;;;;;;6173124;23;20367;-83
2021/09/24 07:01:00;;;;;;;4.20;2.55;;;13.00;99.90;;;;;;6193892;23;20374;-81
2021/09/24 07:03:44;;;;;;;3.97;2.00;;;13.00;99.90;;;;;;6171284;23;20422;-81
2021/09/24 07:06:31;;;;;;;8.60;2.93;;;13.10;99.90;;;;;;6167761;23;20375;-81
2021/09/24 07:09:16;;;;;;;7.07;2.30;;;13.00;99.90;;;;;;6169781;23;20424;-83
2021/09/24 07:12:00;;;;;;;5.22;2.53;;;13.00;99.90;;;;;;6188689;23;20375;-82
2021/09/24 07:14:44;;;;;;;8.85;2.00;;;13.10;99.90;;;;;;6190161;23;20417;-82
2021/09/24 07:17:29;;;;;;;7.03;2.92;;;13.10;99.90;;;;;;6191726;23;20758;-81
2021/09/24 07:20:13;;;;;;;4.35;2.45;;;13.10;99.90;;;;;;6192744;23;20374;-81
2021/09/24 07:22:57;;;;;;;4.82;2.28;;;13.30;99.90;;;;;;6192164;23;20673;-80
2021/09/24 07:25:41;;;;;;;3.60;2.28;;;13.40;99.90;;;;;;6191782;23;20406;-79
2021/09/24 07:28:26;;;;;;;4.80;2.70;;;13.40;99.90;;;;;;6192230;23;20375;-81
2021/09/24 07:31:10;;;;;;;7.90;2.90;;;13.60;99.90;;;;;;6189232;23;20654;-83
2021/09/24 07:33:55;;;;;;;6.05;3.90;;;13.70;99.90;;;;;;6175866;23;20437;-82
2021/09/24 07:36:39;;;;;;;5.43;3.95;;;13.80;99.90;;;;;;6155949;23;20407;-84
2021/09/24 07:39:36;;;;;;;6.22;3.30;;;13.90;99.90;;;;;;6202780;23;20872;-82
2021/09/24 07:42:23;;;;;;;5.97;2.30;;;14.00;99.90;;;;;;6177321;23;20379;-86
2021/09/24 07:45:07;;;;;;;4.60;2.63;;;14.10;99.90;;;;;;6200505;23;20371;-80
2021/09/24 07:47:53;;;;;;;4.33;2.63;;;14.20;99.90;;;;;;6205315;23;20731;-83
2021/09/24 07:50:38;;;;;;;9.32;2.92;;;14.20;99.90;;;;;;6194629;23;20414;-83
2021/09/24 07:53:23;;;;;;;5.38;2.60;;;14.30;99.90;;;;;;6177937;23;20387;-84
2021/09/24 07:56:08;;;;;;;3.35;2.30;;;14.30;99.90;;;;;;6187540;23;20430;-85
2021/09/24 07:58:55;;;;;;;3.45;2.20;;;14.30;99.90;;;;;;6185589;23;20398;-85
2021/09/24 08:01:42;;;;;;;6.10;2.50;;;14.30;99.90;;;;;;6178878;23;20447;-84
2021/09/24 08:04:31;;;;;;;3.67;2.42;;;14.30;99.90;;;;;;6204258;23;20452;-83
2021/09/24 08:07:36;;;;;;;9.25;2.53;;;14.40;99.90;;;;;;6164652;23;20370;-83
2021/09/24 08:10:21;;;;;;;5.63;2.83;;;14.30;99.90;;;;;;6191345;23;20370;-89
2021/09/24 08:13:06;;;;;;;5.87;2.60;;;14.50;99.90;;;;;;6175777;23;20379;-88
2021/09/24 08:15:55;;;;;;;5.38;2.28;;;14.50;99.90;;;;;;6183047;23;20402;-82
2021/09/24 08:18:44;;;;;;;5.75;2.47;;;14.60;99.90;;;;;;6189437;23;20370;-84
2021/09/24 08:21:50;;;;;;;5.50;2.40;;;14.80;99.90;;;;;;6188297;23;20399;-83
2021/09/24 08:24:35;;;;;;;3.90;2.42;;;14.90;99.90;;;;;;6163076;23;20388;-84
2021/09/24 08:27:24;;;;;;;5.20;2.33;;;14.90;99.90;;;;;;6191157;22;20366;-85
2021/09/24 08:30:11;;;;;;;4.13;2.55;;;14.90;99.90;;;;;;6188555;23;20370;-90
2021/09/24 08:32:56;;;;;;;4.45;2.45;;;15.00;99.90;;;;;;6212408;23;20374;-91
2021/09/24 08:35:42;;;;;;;4.90;2.55;;;15.00;99.90;;;;;;6212256;23;20370;-93
2021/09/24 08:38:26;;;;;;;6.55;2.22;;;15.00;99.90;;;;;;6211727;23;20374;-84
2021/09/24 08:41:11;;;;;;;4.75;2.20;;;15.00;99.90;;;;;;6169720;23;20459;-88
2021/09/24 08:43:56;;;;;;;6.32;2.70;;;15.10;99.90;;;;;;6212644;23;20429;-88
2021/09/24 08:46:40;;;;;;;6.50;2.23;;;15.00;99.90;;;;;;6150036;23;20366;-90
2021/09/24 08:49:24;;;;;;;2.00;1.70;;;15.20;99.90;;;;;;6191905;23;20363;-88
2021/09/24 08:52:10;;;;;;;4.45;2.42;;;15.20;99.90;;;;;;6211150;22;20374;-89
2021/09/24 08:54:56;;;;;;;3.83;2.13;;;15.70;99.90;;;;;;6189680;23;20371;-89
2021/09/24 08:57:41;;;;;;;3.90;2.17;;;15.50;99.90;;;;;;6191760;23;20402;-91
2021/09/24 09:00:25;;;;;;;3.97;2.20;;;15.40;99.90;;;;;;6211216;23;20363;-88
2021/09/24 09:03:13;;;;;;;4.57;2.58;;;15.60;99.90;;;;;;6212019;23;20436;-90
2021/09/24 09:05:58;;;;;;;3.85;1.92;;;15.80;99.90;;;;;;6211489;23;20366;-84
2021/09/24 09:08:43;;;;;;;7.57;2.10;;;15.80;99.90;;;;;;6190053;23;20370;-88
2021/09/24 09:11:28;;;;;;;2.90;2.13;;;15.90;99.90;;;;;;6212000;23;20378;-92
2021/09/24 09:14:12;;;;;;;4.47;1.92;;;16.00;99.90;;;;;;6212649;23;20360;-87
2021/09/24 09:16:57;;;;;;;4.30;2.20;;;16.00;99.90;;;;;;6213689;23;20756;-85
2021/09/24 09:19:41;;;;;;;3.50;1.80;;;16.20;99.90;;;;;;6191579;23;20386;-89
2021/09/24 09:22:26;;;;;;;5.53;2.30;;;16.30;99.90;;;;;;6199067;23;20443;-91
2021/09/24 09:25:34;;;;;;;5.43;2.10;;;16.40;99.90;;;;;;6193164;23;20390;-91
2021/09/24 09:28:36;;;;;;;3.67;2.10;;;16.50;99.90;;;;;;6190961;23;20362;-90
2021/09/24 09:31:26;;;;;;;4.37;2.43;;;16.30;99.90;;;;;;6210439;23;20410;-91
2021/09/24 09:34:12;;;;;;;4.53;2.27;;;16.30;99.90;;;;;;6211312;23;20678;-93
2021/09/24 09:36:57;;;;;;;2.70;2.10;;;16.30;99.90;;;;;;6191672;23;20428;-85
2021/09/24 09:39:42;;;;;;;2.50;1.90;;;16.30;99.90;;;;;;6211317;23;20387;-92
2021/09/24 09:42:37;;;;;;;5.20;2.28;;;16.40;99.90;;;;;;6214048;23;20383;-91
2021/09/24 09:45:21;;;;;;;3.65;1.75;;;16.40;99.90;;;;;;6211521;23;20347;-91
2021/09/24 09:48:11;;;;;;;3.70;2.10;;;16.50;99.90;;;;;;6212378;23;20367;-91
2021/09/24 09:50:56;;;;;;;3.10;1.85;;;16.60;99.90;;;;;;6191846;23;20362;-89
2021/09/24 09:53:40;;;;;;;4.82;1.88;;;16.50;99.90;;;;;;6211961;23;20370;-91
2021/09/24 09:56:40;;;;;;;2.38;1.83;;;16.50;99.90;;;;;;6212333;23;20362;-88
2021/09/24 09:59:29;;;;;;;2.78;1.73;;;16.60;99.90;;;;;;6172187;23;20451;-90
2021/09/24 10:02:13;;;;;;;3.30;2.10;;;16.90;99.90;;;;;;6212379;23;20403;-88
2021/09/24 10:04:58;;;;;;;2.17;1.65;;;17.10;99.90;;;;;;6234164;22;20363;-92
2021/09/24 10:07:43;;;;;;;1.50;1.23;;;17.30;99.90;;;;;;6191316;23;20390;-92
2021/09/24 10:10:28;;;;;;;3.58;2.00;;;17.60;99.90;;;;;;6212654;23;20367;-88
2021/09/24 10:13:14;;;;;;;7.47;2.30;;;17.70;99.90;;;;;;6198422;22;20947;-90
2021/09/24 10:15:58;;;;;;;2.43;1.90;;;17.70;99.90;;;;;;6189352;23;20373;-93
2021/09/24 10:18:43;;;;;;;6.03;1.98;;;17.60;99.90;;;;;;6193912;22;20419;-92
2021/09/24 10:21:27;;;;;;;5.45;2.15;;;17.90;99.90;;;;;;6213577;23;20379;-91
2021/09/24 10:24:13;;;;;;;5.25;2.22;;;18.10;99.90;;;;;;6150578;23;20358;-91
2021/09/24 10:26:59;;;;;;;4.13;2.25;;;18.40;99.90;;;;;;6197100;22;20394;-89
2021/09/24 10:29:45;;;;;;;2.58;1.73;;;18.20;99.90;;;;;;6213742;22;20450;-92
2021/09/24 10:32:30;;;;;;;3.22;2.00;;;18.20;99.90;;;;;;6213848;23;20399;-89
2021/09/24 10:35:14;;;;;;;8.93;2.20;;;18.30;99.90;;;;;;6212368;22;20374;-89
2021/09/24 10:38:07;;;;;;;4.65;1.73;;;18.00;99.90;;;;;;6216146;23;20367;-90
2021/09/24 10:41:52;;;;;;;4.10;1.90;;;18.10;99.90;;;;;;6211654;23;20395;-91
2021/09/24 10:44:56;;;;;;;1.80;1.40;;;18.00;99.90;;;;;;6190833;22;20371;-88
2021/09/24 10:48:06;;;;;;;3.40;1.90;;;18.20;99.90;;;;;;6193034;23;20427;-89
2021/09/24 10:51:05;;;;;;;3.53;2.07;;;18.30;99.90;;;;;;6232573;22;20358;-92
2021/09/24 10:53:55;;;;;;;3.08;2.00;;;18.50;99.90;;;;;;6197016;22;20370;-88
2021/09/24 10:56:59;;;;;;;3.30;1.73;;;18.40;99.90;;;;;;6214185;23;20374;-93
2021/09/24 10:59:43;;;;;;;4.07;1.85;;;18.20;99.90;;;;;;6147036;23;20396;-91
2021/09/24 11:02:42;;;;;;;3.92;1.95;;;18.40;99.90;;;;;;6212733;23;21010;-91
2021/09/24 11:05:58;;;;;;;5.20;2.10;;;18.60;99.90;;;;;;6198225;23;20467;-93
2021/09/24 11:08:44;;;;;;;2.15;1.75;;;19.00;99.90;;;;;;6203391;22;20390;-92
2021/09/24 11:11:35;;;;;;;5.57;1.90;;;18.90;99.90;;;;;;6215073;23;20431;-92
2021/09/24 11:14:28;;;;;;;1.38;1.27;;;18.20;99.90;;;;;;6178237;23;20378;-92
2021/09/24 11:17:48;;;;;;;1.80;1.33;;;18.40;99.90;;;;;;6197121;22;20396;-91
2021/09/24 12:30:50;;;;;;;2.90;1.60;;;17.30;99.90;;;;;;6253009;22;20385;-88
2021/09/24 12:33:36;;;;;;;1.60;1.50;;;17.20;99.90;;;;;;6167948;23;20374;-91
2021/09/24 12:36:23;;;;;;;1.83;1.30;;;17.10;99.90;;;;;;6133484;23;20379;-92
2021/09/24 12:39:18;;;;;;;1.98;1.42;;;17.20;99.90;;;;;;6133888;23;20362;-91
2021/09/24 12:42:09;;;;;;;1.65;1.30;;;17.20;99.90;;;;;;6207316;23;20390;-88
2021/09/24 12:45:12;;;;;;;1.48;1.38;;;17.10;99.90;;;;;;6145568;23;20371;-88
2021/09/24 12:48:29;;;;;;;1.35;1.23;;;17.20;99.90;;;;;;6167668;23;20371;-85
2021/09/24 12:51:14;;;;;;;1.42;1.30;;;17.40;99.90;;;;;;6174403;23;20686;-88
2021/09/24 12:53:59;;;;;;;3.60;1.42;;;17.30;99.90;;;;;;6187410;23;20422;-92
2021/09/24 12:56:44;;;;;;;1.50;1.40;;;17.50;99.90;;;;;;6169771;23;20499;-93
2021/09/24 12:59:28;;;;;;;1.33;1.23;;;17.80;99.90;;;;;;6147725;23;20391;-91
2021/09/24 13:02:14;;;;;;;1.38;1.27;;;18.00;99.90;;;;;;6147840;23;20367;-89
2021/09/24 13:04:59;;;;;;;3.13;1.20;;;17.90;99.90;;;;;;6151441;23;20442;-92
2021/09/24 13:07:44;;;;;;;2.60;1.23;;;17.70;99.90;;;;;;6149489;23;20374;-91
2021/09/24 13:10:28;;;;;;;0.95;0.95;;;17.70;99.90;;;;;;6169927;23;20401;-86
2021/09/24 13:13:12;;;;;;;5.10;2.40;;;17.90;99.90;;;;;;6149261;23;20436;-88
2021/09/24 13:15:56;;;;;;;3.40;1.40;;;18.00;99.90;;;;;;6149410;23;20359;-83
2021/09/24 13:18:41;;;;;;;1.85;1.40;;;17.80;99.90;;;;;;6148715;23;20417;-86
2021/09/24 13:21:30;;;;;;;1.40;1.30;;;17.90;99.90;;;;;;6150268;23;20394;-86
2021/09/24 13:24:18;;;;;;;2.03;1.40;;;17.90;99.90;;;;;;6174345;23;20378;-85
2021/09/24 13:27:03;;;;;;;1.92;1.10;;;17.80;99.90;;;;;;6174815;22;20383;-88
2021/09/24 13:29:48;;;;;;;1.25;1.10;;;17.80;99.90;;;;;;6161345;23;20398;-87
2021/09/24 13:37:46;;;;;;;1.45;1.35;;;17.90;99.90;;;;;;6183344;23;20374;-82
2021/09/24 13:50:56;;;;;;;0.83;0.83;;;18.00;99.90;;;;;;6261850;22;20381;-83
2021/09/24 13:53:40;;;;;;;1.00;1.00;;;18.00;99.90;;;;;;6190359;23;20409;-89
2021/09/24 13:56:25;;;;;;;1.35;1.25;;;18.00;99.90;;;;;;6141913;23;20402;-86
2021/09/24 13:59:10;;;;;;;0.80;0.80;;;17.80;99.90;;;;;;6142369;23;20363;-87
2021/09/24 14:01:54;;;;;;;0.80;0.80;;;17.90;99.90;;;;;;6135392;23;20379;-85
2021/09/24 14:04:39;;;;;;;3.10;1.10;;;18.00;99.90;;;;;;6149393;23;20407;-86
2021/09/24 14:07:26;;;;;;;1.00;1.00;;;18.10;99.90;;;;;;6147961;23;20376;-86
2021/09/24 14:10:11;;;;;;;1.35;1.25;;;18.10;99.90;;;;;;6126407;23;20376;-84
2021/09/24 14:12:56;;;;;;;1.40;1.30;;;18.00;99.90;;;;;;6169434;23;20382;-86
2021/09/24 14:15:40;;;;;;;1.30;1.20;;;17.90;99.90;;;;;;6151055;23;20395;-85
2021/09/24 14:18:25;;;;;;;0.83;0.83;;;17.80;99.90;;;;;;6149559;23;20383;-83
2021/09/24 14:21:09;;;;;;;3.93;1.30;;;18.00;99.90;;;;;;6147565;23;20379;-86
2021/09/24 14:23:54;;;;;;;2.30;1.10;;;17.90;99.90;;;;;;6168661;23;20370;-90
2021/09/24 14:26:38;;;;;;;0.85;0.80;;;17.90;99.90;;;;;;6147763;23;20549;-85
2021/09/24 14:29:24;;;;;;;0.90;0.90;;;17.80;99.90;;;;;;6148967;23;20359;-87
2021/09/24 14:32:11;;;;;;;0.75;0.75;;;17.90;99.90;;;;;;6146999;23;20417;-89
2021/09/24 14:34:56;;;;;;;0.77;0.77;;;17.90;99.90;;;;;;6146454;23;20382;-90
2021/09/24 14:37:43;;;;;;;1.43;0.90;;;18.00;99.90;;;;;;6167133;23;20366;-88
2021/09/24 14:40:27;;;;;;;0.93;0.80;;;17.90;99.90;;;;;;6148494;23;20370;-91
2021/09/24 14:43:12;;;;;;;1.00;0.77;;;17.90;99.90;;;;;;6166511;23;20375;-89
2021/09/24 14:45:58;;;;;;;0.70;0.70;;;18.00;99.90;;;;;;6144683;23;20420;-85
2021/09/24 14:48:43;;;;;;;0.75;0.75;;;17.80;99.90;;;;;;6146154;23;20363;-89
2021/09/24 14:51:27;;;;;;;0.80;0.80;;;17.90;99.90;;;;;;6137170;23;21008;-87
2021/09/24 14:54:12;;;;;;;0.63;0.63;;;17.80;99.90;;;;;;6141213;23;20417;-89
2021/09/24 14:56:56;;;;;;;0.80;0.80;;;17.80;99.90;;;;;;6141302;23;20382;-90
2021/09/24 14:59:41;;;;;;;0.77;0.77;;;17.80;99.90;;;;;;6188435;23;20430;-90
2021/09/24 15:02:25;;;;;;;1.30;1.00;;;17.80;99.90;;;;;;6146257;23;20460;-88
2021/09/24 15:05:10;;;;;;;0.70;0.70;;;17.80;99.90;;;;;;6146155;23;20378;-91
2021/09/24 15:07:54;;;;;;;0.70;0.70;;;17.80;99.90;;;;;;6143855;23;20421;-89
2021/09/24 15:10:38;;;;;;;1.40;0.80;;;17.90;99.90;;;;;;6162729;23;20394;-91
2021/09/24 15:13:23;;;;;;;0.77;0.77;;;18.00;99.90;;;;;;6142796;23;20371;-89
2021/09/24 15:16:07;;;;;;;0.70;0.70;;;17.90;99.90;;;;;;6143742;23;20370;-88
2021/09/24 15:18:52;;;;;;;0.50;0.50;;;17.80;99.90;;;;;;6140745;23;20370;-89
2021/09/24 15:21:37;;;;;;;0.90;0.90;;;17.90;99.90;;;;;;6159898;23;20386;-89
2021/09/24 15:24:21;;;;;;;1.50;1.33;;;17.80;99.90;;;;;;6141124;23;20371;-85
2021/09/24 15:27:06;;;;;;;1.55;1.40;;;17.80;99.90;;;;;;6163316;23;20366;-85
2021/09/24 15:29:51;;;;;;;0.88;0.88;;;17.90;99.90;;;;;;6163060;23;20370;-87
2021/09/24 15:32:35;;;;;;;1.40;0.90;;;17.90;99.90;;;;;;6139988;23;20423;-87
2021/09/24 15:35:19;;;;;;;0.80;0.80;;;17.90;99.90;;;;;;6162725;23;20422;-86
2021/09/24 15:38:04;;;;;;;0.70;0.70;;;17.90;99.90;;;;;;6141952;23;20887;-89
2021/09/24 15:40:48;;;;;;;0.80;0.80;;;18.00;99.90;;;;;;6165064;23;20431;-87
2021/09/24 15:43:33;;;;;;;0.98;0.70;;;17.90;99.90;;;;;;6142046;23;20371;-83
2021/09/24 15:46:22;;;;;;;2.50;1.00;;;18.00;99.90;;;;;;6141101;23;20369;-91
2021/09/24 15:49:07;;;;;;;0.80;0.80;;;18.00;99.90;;;;;;6145259;23;20450;-86
2021/09/24 15:51:51;;;;;;;0.70;0.70;;;18.00;99.90;;;;;;6144632;23;20378;-89